Time;durP1;ratioP1;P1;durP2;ratioP2;P2;SDS_P1;SDS_P2;PMS_P1;PMS_P2;Temp;Humidity;BMP_temperature;BMP_pressure;BME280_temperature;BME280_humidity;BME280_pressure;Samples;Min_cycle;Max_cycle;Signal;HPM_P1;HPM_P2
2021/03/16 00:00:42;;;;;;;21.75;3.17;;;;;;;9.94;57.15;102070.50;4911711;28;125054;-80
2021/03/16 00:03:27;;;;;;;13.93;2.65;;;;;;;9.93;57.31;102075.84;4907949;28;114866;-80
2021/03/16 00:06:10;;;;;;;21.15;2.85;;;;;;;9.94;57.41;102075.81;4898739;28;112637;-79
2021/03/16 00:08:36;;;;;;;19.42;3.22;;;;;;;9.93;57.22;102082.00;4912515;28;121827;-79
2021/03/16 00:11:03;;;;;;;17.02;2.80;;;;;;;9.91;57.38;102078.50;4915820;28;124229;-79
2021/03/16 00:13:29;;;;;;;18.10;3.15;;;;;;;9.92;57.44;102085.53;4899080;28;112468;-80
2021/03/16 00:15:56;;;;;;;20.80;3.20;;;;;;;9.94;57.30;102089.03;4879752;28;113767;-79
2021/03/16 00:18:24;;;;;;;16.20;3.17;;;;;;;9.95;57.30;102084.59;4898739;28;124526;-79
2021/03/16 00:20:52;;;;;;;19.27;2.75;;;;;;;9.96;57.22;102096.06;4904280;28;123758;-79
2021/03/16 00:23:19;;;;;;;13.73;2.70;;;;;;;9.98;57.29;102099.53;4896039;28;114393;-79
2021/03/16 00:25:45;;;;;;;22.00;3.20;;;;;;;9.97;56.95;102098.66;4903149;28;114185;-79
2021/03/16 00:28:12;;;;;;;17.40;3.00;;;;;;;9.99;57.26;102106.59;4886819;28;122148;-79
2021/03/16 00:30:38;;;;;;;21.60;2.85;;;;;;;9.98;57.42;102110.13;4910766;28;123795;-77
2021/03/16 00:33:05;;;;;;;20.40;2.95;;;;;;;9.97;57.02;102108.41;4907034;28;114048;-78
2021/03/16 00:35:33;;;;;;;19.75;2.88;;;;;;;9.96;56.86;102111.94;4907250;28;113692;-78
2021/03/16 00:38:00;;;;;;;16.42;2.63;;;;;;;9.95;56.63;102108.44;4902964;28;123721;-78
2021/03/16 00:40:26;;;;;;;15.98;2.70;;;;;;;9.94;56.66;102115.50;4898610;28;123139;-78
2021/03/16 00:42:53;;;;;;;22.35;3.13;;;;;;;9.93;56.74;102113.75;4899390;28;114506;-78
2021/03/16 00:45:19;;;;;;;16.95;2.55;;;;;;;9.91;56.83;102112.91;4882488;28;113309;-78
2021/03/16 00:47:46;;;;;;;14.55;2.63;;;;;;;9.89;56.55;102112.06;4898906;28;122697;-78
2021/03/16 00:50:14;;;;;;;14.50;2.53;;;;;;;9.89;56.43;102106.78;4893761;28;123921;-78
2021/03/16 00:52:40;;;;;;;20.38;2.67;;;;;;;9.87;56.67;102105.94;4898491;28;114358;-79
2021/03/16 00:55:11;;;;;;;16.30;2.67;;;;;;;9.86;56.45;102106.84;4894576;28;114242;-80
2021/03/16 00:57:37;;;;;;;17.65;3.03;;;;;;;9.83;56.68;102104.28;4897076;28;124181;-78
2021/03/16 01:00:06;;;;;;;19.70;2.55;;;;;;;9.83;56.41;102117.50;4880670;28;122095;-78
2021/03/16 01:02:32;;;;;;;18.48;3.45;;;;;;;9.81;56.31;102108.72;4876986;23;113587;-71
2021/03/16 01:05:00;;;;;;;8.80;2.15;;;;;;;9.80;56.53;102117.56;4904366;28;111826;-69
2021/03/16 01:07:26;;;;;;;18.08;2.30;;;;;;;9.80;56.21;102128.16;4894606;28;123751;-72
2021/03/16 01:09:53;;;;;;;11.23;2.03;;;;;;;9.80;56.10;102122.84;4898399;28;124120;-70
2021/03/16 01:12:20;;;;;;;15.05;2.15;;;;;;;9.79;55.77;102126.38;4891654;28;114083;-71
2021/03/16 01:14:46;;;;;;;14.70;2.10;;;;;;;9.78;55.99;102127.31;4881148;28;114209;-70
2021/03/16 01:17:13;;;;;;;16.60;2.33;;;;;;;9.78;56.19;102129.09;4880713;28;124119;-71
2021/03/16 01:19:40;;;;;;;13.70;2.28;;;;;;;9.78;56.11;102135.25;4879930;28;123616;-69
2021/03/16 01:22:07;;;;;;;12.38;2.10;;;;;;;9.78;55.80;102140.53;4885533;28;114181;-70
2021/03/16 01:24:33;;;;;;;17.70;2.60;;;;;;;9.78;55.67;102140.53;4888348;28;113587;-70
2021/03/16 01:27:00;;;;;;;15.70;2.53;;;;;;;9.79;55.79;102147.56;4885971;28;123600;-71
2021/03/16 01:29:26;;;;;;;13.02;2.10;;;;;;;9.79;55.76;102142.25;4887807;28;124703;-70
2021/03/16 01:31:53;;;;;;;15.18;2.60;;;;;;;9.79;55.57;102136.13;4886721;28;114210;-71
2021/03/16 01:34:20;;;;;;;16.75;2.55;;;;;;;9.78;55.90;102140.53;4892087;28;113400;-70
2021/03/16 01:36:46;;;;;;;17.65;2.60;;;;;;;9.79;55.97;102136.97;4883016;28;123892;-71
2021/03/16 01:39:13;;;;;;;15.90;2.00;;;;;;;9.80;55.76;102148.44;4886486;28;123449;-71
2021/03/16 01:41:39;;;;;;;17.38;2.42;;;;;;;9.79;55.63;102136.97;4875473;28;113528;-71
2021/03/16 01:44:07;;;;;;;15.98;2.35;;;;;;;9.81;55.62;102145.75;4892555;28;113917;-71
2021/03/16 01:46:34;;;;;;;14.77;2.50;;;;;;;9.82;55.88;102146.63;4891010;28;123089;-71
2021/03/16 01:49:00;;;;;;;14.07;2.30;;;;;;;9.83;55.87;102148.38;4882357;28;122685;-71
2021/03/16 01:51:28;;;;;;;14.90;1.95;;;;;;;9.83;55.72;102143.97;4877923;28;113511;-70
2021/03/16 01:53:54;;;;;;;12.88;2.45;;;;;;;9.86;55.99;102143.88;4888838;28;113873;-71
2021/03/16 01:56:24;;;;;;;9.95;2.42;;;;;;;9.86;55.51;102149.19;4885698;28;123803;-71
2021/03/16 01:59:15;;;;;;;14.75;2.33;;;;;;;9.85;55.86;102151.84;4885904;28;124832;-71
2021/03/16 02:02:03;;;;;;;9.63;1.83;;;;;;;9.84;55.77;102145.69;4890713;28;116877;-72
2021/03/16 02:04:50;;;;;;;16.52;2.42;;;;;;;9.84;55.79;102144.84;4890361;28;115143;-71
2021/03/16 02:07:44;;;;;;;14.82;2.45;;;;;;;9.82;55.67;102146.63;4886494;28;123978;-71
2021/03/16 02:10:38;;;;;;;15.45;2.40;;;;;;;9.80;55.97;102151.97;4884345;28;124821;-71
2021/03/16 02:13:25;;;;;;;12.82;2.25;;;;;;;9.79;56.03;102152.00;4886875;28;115157;-71
2021/03/16 02:16:15;;;;;;;15.05;2.30;;;;;;;9.79;55.95;102158.13;4889469;28;114468;-71
2021/03/16 02:19:08;;;;;;;13.38;2.35;;;;;;;9.79;55.94;102155.50;4886235;28;124742;-71
2021/03/16 02:21:53;;;;;;;15.38;2.47;;;;;;;9.81;55.97;102156.31;4880569;28;125277;-71
2021/03/16 02:25:02;;;;;;;18.65;2.33;;;;;;;9.78;56.04;102156.41;4892592;28;114384;-71
2021/03/16 02:28:19;;;;;;;22.25;2.55;;;;;;;9.78;56.19;102168.78;4888661;28;115102;-71
2021/03/16 02:31:06;;;;;;;21.00;2.72;;;;;;;9.76;55.94;102152.94;4862367;28;124821;-71
2021/03/16 02:33:55;;;;;;;17.90;2.38;;;;;;;9.75;56.09;102161.75;4882793;28;124992;-71
2021/03/16 02:36:41;;;;;;;16.73;2.72;;;;;;;9.77;56.07;102157.31;4881655;28;115067;-71
2021/03/16 02:39:27;;;;;;;14.57;2.45;;;;;;;9.77;56.00;102165.25;4886928;28;114939;-71
2021/03/16 02:42:14;;;;;;;13.45;2.50;;;;;;;9.76;55.89;102163.50;4884296;28;124772;-71
2021/03/16 02:45:01;;;;;;;15.02;2.30;;;;;;;9.77;56.28;102170.53;4886838;28;124643;-71
2021/03/16 02:47:49;;;;;;;13.63;2.50;;;;;;;9.79;55.98;102165.22;4887097;28;114931;-71
2021/03/16 02:50:35;;;;;;;15.45;2.50;;;;;;;9.81;56.01;102166.91;4887450;28;114749;-71
2021/03/16 02:53:21;;;;;;;12.32;2.40;;;;;;;9.83;56.06;102170.44;4885236;28;124961;-71
2021/03/16 02:56:10;;;;;;;14.02;2.47;;;;;;;9.84;56.10;102172.16;4887745;28;125038;-71
2021/03/16 02:58:57;;;;;;;14.57;2.50;;;;;;;9.84;56.12;102172.16;4881538;28;115772;-71
2021/03/16 03:01:44;;;;;;;16.38;2.60;;;;;;;9.84;56.09;102177.44;4887667;28;115949;-71
2021/03/16 03:04:32;;;;;;;14.38;2.30;;;;;;;9.85;56.05;102178.31;4889834;28;124858;-71
2021/03/16 03:07:19;;;;;;;14.57;2.13;;;;;;;9.84;55.74;102172.16;4882210;28;125601;-71
2021/03/16 03:10:04;;;;;;;16.77;2.88;;;;;;;9.84;56.08;102177.44;4881983;28;115203;-71
2021/03/16 03:12:53;;;;;;;12.82;2.30;;;;;;;9.83;56.00;102175.72;4884634;28;114715;-70
2021/03/16 03:15:38;;;;;;;15.30;2.42;;;;;;;9.81;55.75;102182.78;4886556;28;124963;-71
2021/03/16 03:18:23;;;;;;;13.90;2.17;;;;;;;9.79;55.99;102184.59;4888250;28;125407;-70
2021/03/16 03:21:14;;;;;;;14.63;2.10;;;;;;;9.79;56.06;102189.88;4893776;28;114826;-70
2021/03/16 03:24:12;;;;;;;11.90;2.05;;;;;;;9.79;55.92;102183.72;4889221;28;114196;-70
2021/03/16 03:27:06;;;;;;;10.55;2.28;;;;;;;9.78;55.37;102196.09;4889765;28;124892;-70
2021/03/16 03:29:53;;;;;;;12.25;2.20;;;;;;;9.78;55.67;102189.94;4889852;28;123731;-70
2021/03/16 03:32:38;;;;;;;14.48;2.47;;;;;;;9.78;55.88;102204.03;4884877;28;115158;-70
2021/03/16 03:35:25;;;;;;;15.68;2.42;;;;;;;9.80;55.98;102196.94;4891015;28;114701;-70
2021/03/16 03:38:12;;;;;;;11.85;2.13;;;;;;;9.82;55.85;102210.16;4886890;28;124742;-71
2021/03/16 03:41:01;;;;;;;16.50;2.28;;;;;;;9.84;55.70;102208.34;4889356;28;124074;-70
2021/03/16 03:43:47;;;;;;;15.50;2.67;;;;;;;9.84;55.67;102203.91;4891670;28;114361;-70
2021/03/16 03:46:34;;;;;;;14.10;2.35;;;;;;;9.84;55.93;102209.19;4891888;28;114811;-70
2021/03/16 03:49:20;;;;;;;18.00;2.72;;;;;;;9.83;55.90;102210.13;4883925;28;124936;-70
2021/03/16 03:52:07;;;;;;;;;;;;;;;9.81;55.81;102209.25;4878980;28;124841;-71
2021/03/16 03:54:53;;;;;;;20.55;2.50;;;;;;;9.80;55.94;102207.53;4883135;28;116227;-70
2021/03/16 03:57:41;;;;;;;15.07;2.80;;;;;;;9.79;55.76;102216.34;4887381;28;115736;-70
2021/03/16 04:00:27;;;;;;;14.40;3.15;;;;;;;9.78;55.89;102219.06;4889479;28;124724;-70
2021/03/16 04:03:12;;;;;;;19.63;2.97;;;;;;;9.77;56.05;102220.81;4892573;28;125296;-70
2021/03/16 04:05:59;;;;;;;15.30;3.00;;;;;;;9.76;55.97;102219.06;4887393;28;115221;-71
2021/03/16 04:08:45;;;;;;;20.92;3.08;;;;;;;9.76;56.07;102227.00;4893459;28;114768;-71
2021/03/16 04:11:30;;;;;;;19.90;3.25;;;;;;;9.76;56.31;102216.44;4889384;28;124818;-70
2021/03/16 04:14:16;;;;;;;19.90;3.33;;;;;;;9.76;56.27;102227.00;4880581;28;124480;-70
2021/03/16 04:17:01;;;;;;;21.48;3.30;;;;;;;9.77;56.54;102223.44;4895828;28;114293;-70
2021/03/16 04:19:50;;;;;;;17.92;2.95;;;;;;;9.75;56.49;102220.81;4892067;28;115036;-70
2021/03/16 04:22:36;;;;;;;21.98;3.53;;;;;;;9.75;56.84;102225.25;4889847;28;124224;-70
2021/03/16 04:25:20;;;;;;;;;;;;;;;9.71;56.56;102235.03;4885632;28;124604;-70
2021/03/16 04:28:05;;;;;;;17.48;3.10;;;;;;;9.74;56.54;102234.13;4887572;28;115277;-70
2021/03/16 04:30:51;;;;;;;18.47;3.00;;;;;;;9.73;56.82;102227.06;4887720;28;114714;-70
2021/03/16 04:33:36;;;;;;;16.95;3.17;;;;;;;9.74;56.95;102234.13;4887528;28;125287;-71
2021/03/16 04:36:21;;;;;;;23.30;3.23;;;;;;;9.72;57.01;102241.22;4890532;28;124913;-71
2021/03/16 04:39:06;;;;;;;18.47;3.10;;;;;;;9.72;56.89;102243.84;4889568;28;114953;-71
2021/03/16 04:41:51;;;;;;;20.07;3.33;;;;;;;9.72;57.16;102241.22;4889132;28;114245;-70
2021/03/16 04:44:36;;;;;;;18.35;2.92;;;;;;;9.71;57.18;102240.31;4890110;28;124963;-70
2021/03/16 04:47:21;;;;;;;19.20;3.63;;;;;;;9.71;56.87;102244.75;4893974;28;123940;-70
2021/03/16 04:50:07;;;;;;;17.48;3.15;;;;;;;9.70;57.14;102245.63;4889540;28;115455;-70
2021/03/16 04:52:52;;;;;;;20.85;3.65;;;;;;;9.71;57.17;102250.03;4894441;28;117935;-71
2021/03/16 04:55:38;;;;;;;20.63;3.50;;;;;;;9.71;57.28;102250.03;4890694;28;125027;-70
2021/03/16 04:58:23;;;;;;;20.40;3.13;;;;;;;9.72;57.57;102246.50;4894176;28;125515;-70
2021/03/16 05:01:08;;;;;;;28.83;3.60;;;;;;;9.73;57.51;102256.16;4892075;28;114989;-70
2021/03/16 05:03:53;;;;;;;23.55;3.15;;;;;;;9.72;57.50;102257.09;4886923;28;114803;-70
2021/03/16 05:06:38;;;;;;;17.90;3.03;;;;;;;9.72;57.42;102255.28;4888727;28;124836;-70
2021/03/16 05:09:23;;;;;;;18.47;2.73;;;;;;;9.72;57.35;102257.09;4893502;28;124805;-71
2021/03/16 05:12:09;;;;;;;22.10;3.60;;;;;;;9.73;57.44;102253.50;4889876;28;114937;-71
2021/03/16 05:14:54;;;;;;;18.75;3.08;;;;;;;9.74;57.33;102255.28;4888040;28;115263;-71
2021/03/16 05:17:39;;;;;;;26.10;3.83;;;;;;;9.73;57.24;102253.50;4893261;28;124943;-70
2021/03/16 05:20:24;;;;;;;18.92;3.05;;;;;;;9.72;57.81;102257.09;4887255;28;124718;-71
2021/03/16 05:23:10;;;;;;;18.67;3.20;;;;;;;9.72;57.19;102262.38;4886938;28;114667;-71
2021/03/16 05:25:55;;;;;;;14.80;2.40;;;;;;;9.70;57.40;102258.84;4888618;28;114788;-70
2021/03/16 05:28:41;;;;;;;20.63;2.75;;;;;;;9.71;57.59;102271.19;4887157;28;126241;-70
2021/03/16 05:31:26;;;;;;;19.27;3.20;;;;;;;9.71;57.59;102265.91;4891098;28;124611;-71
2021/03/16 05:34:12;;;;;;;18.53;3.27;;;;;;;9.71;57.74;102271.19;4894772;28;114992;-71
2021/03/16 05:36:57;;;;;;;19.60;2.95;;;;;;;9.71;57.57;102265.91;4888078;28;114802;-71
2021/03/16 05:39:41;;;;;;;15.95;2.97;;;;;;;9.70;57.67;102269.44;4883456;28;124015;-70
2021/03/16 05:42:27;;;;;;;19.67;3.20;;;;;;;9.70;57.50;102274.72;4884010;28;124753;-70
2021/03/16 05:45:12;;;;;;;21.77;3.38;;;;;;;9.69;57.72;102278.28;4880815;28;115282;-70
2021/03/16 05:47:59;;;;;;;17.10;3.20;;;;;;;9.69;57.49;102280.94;4886850;28;115706;-71
2021/03/16 05:50:44;;;;;;;18.55;3.50;;;;;;;9.67;57.61;102282.75;4891737;28;125049;-71
2021/03/16 05:53:30;;;;;;;25.20;3.50;;;;;;;9.66;57.68;102288.91;4888186;28;125432;-71
2021/03/16 05:56:16;;;;;;;20.00;3.25;;;;;;;9.65;57.47;102287.19;4892006;28;114956;-70
2021/03/16 05:59:04;;;;;;;17.52;3.08;;;;;;;9.63;58.09;102294.28;4880752;28;114749;-70
2021/03/16 06:01:49;;;;;;;22.42;3.25;;;;;;;9.64;57.70;102290.72;4882782;28;125456;-70
2021/03/16 06:04:35;;;;;;;22.58;3.50;;;;;;;9.65;57.92;102296.00;4889766;28;125050;-70
2021/03/16 06:07:20;;;;;;;20.57;3.43;;;;;;;9.66;57.97;102294.22;4886239;28;114946;-70
2021/03/16 06:10:06;;;;;;;15.70;3.40;;;;;;;9.65;57.91;102300.41;4892536;28;114703;-70
2021/03/16 06:12:51;;;;;;;;;;;;;;;9.64;58.04;102293.38;4881761;28;124933;-70
2021/03/16 06:15:36;;;;;;;23.00;3.22;;;;;;;9.66;58.06;102299.50;4891404;28;124286;-70
2021/03/16 06:18:27;;;;;;;24.15;3.53;;;;;;;9.64;58.04;102296.00;4885899;28;114426;-71
2021/03/16 06:21:21;;;;;;;23.85;3.60;;;;;;;9.65;58.18;102292.47;4884953;28;114006;-70
2021/03/16 06:24:12;;;;;;;26.65;3.67;;;;;;;9.67;58.22;102298.63;4880876;28;124900;-71
2021/03/16 06:26:57;;;;;;;21.60;3.38;;;;;;;9.69;58.25;102299.47;4879599;28;124704;-70
2021/03/16 06:30:02;;;;;;;22.35;3.40;;;;;;;9.72;58.49;102304.69;4884633;28;114957;-71
2021/03/16 06:32:47;;;;;;;25.33;4.07;;;;;;;9.71;58.17;102302.94;4888894;28;114798;-71
2021/03/16 06:35:33;;;;;;;27.08;3.70;;;;;;;9.71;58.23;102298.50;4888308;28;124885;-70
2021/03/16 06:38:18;;;;;;;24.80;3.90;;;;;;;9.75;58.30;102294.03;4884257;28;124753;-70
2021/03/16 06:41:15;;;;;;;20.30;3.77;;;;;;;9.77;58.67;102297.53;4884171;28;117160;-70
2021/03/16 06:44:04;;;;;;;27.15;4.03;;;;;;;9.80;58.68;102297.50;4883384;28;115630;-70
2021/03/16 06:46:57;;;;;;;24.48;4.10;;;;;;;9.84;58.68;102304.47;4882449;28;124979;-70
2021/03/16 06:49:43;;;;;;;23.05;4.18;;;;;;;9.87;58.87;102304.41;4879825;28;124681;-70
2021/03/16 06:52:28;;;;;;;28.67;4.13;;;;;;;9.91;58.82;102305.25;4881990;28;115038;-70
2021/03/16 06:55:14;;;;;;;24.73;3.83;;;;;;;9.92;58.53;102307.81;4884799;28;115036;-70
2021/03/16 06:58:08;;;;;;;23.20;3.75;;;;;;;9.96;58.56;102313.06;4888122;28;124336;-70
2021/03/16 07:01:18;;;;;;;22.40;3.40;;;;;;;9.98;58.75;102312.13;4884339;28;124627;-70
2021/03/16 07:04:14;;;;;;;22.48;3.83;;;;;;;10.01;58.76;102313.88;4897716;23;115294;-72
2021/03/16 07:07:01;;;;;;;24.42;3.78;;;;;;;10.06;58.54;102314.66;4884797;28;114685;-72
2021/03/16 07:09:47;;;;;;;24.48;3.85;;;;;;;10.11;58.57;102312.78;4879987;28;124871;-72
2021/03/16 07:12:35;;;;;;;18.63;3.85;;;;;;;10.15;58.55;102309.16;4884780;28;124902;-72
2021/03/16 07:15:23;;;;;;;24.10;3.95;;;;;;;10.20;58.87;102312.59;4863020;28;115034;-72
2021/03/16 07:18:10;;;;;;;18.10;3.97;;;;;;;10.23;58.55;102317.84;4870312;28;114576;-72
2021/03/16 07:20:58;;;;;;;19.50;3.85;;;;;;;10.25;58.65;102305.44;4868487;28;125354;-72
2021/03/16 07:23:57;;;;;;;22.70;3.28;;;;;;;10.27;58.64;102314.22;4859971;28;125014;-72
2021/03/16 07:26:42;;;;;;;26.42;3.83;;;;;;;10.32;58.48;102323.00;4866078;28;115133;-72
2021/03/16 07:29:28;;;;;;;22.88;3.28;;;;;;;10.33;58.75;102313.25;4864013;28;114730;-72
2021/03/16 07:32:18;;;;;;;27.10;4.03;;;;;;;10.38;58.77;102316.69;4860046;28;124880;-72
2021/03/16 07:35:05;;;;;;;21.58;3.70;;;;;;;10.47;58.85;102331.50;4854208;28;124936;-72
2021/03/16 07:37:53;;;;;;;17.90;3.50;;;;;;;10.54;58.79;102327.84;4857994;28;116215;-72
2021/03/16 07:40:40;;;;;;;21.35;3.38;;;;;;;10.62;58.58;102328.53;4860318;28;115719;-72
2021/03/16 07:43:34;;;;;;;20.02;3.08;;;;;;;10.70;58.41;102323.97;4858662;28;125025;-72
2021/03/16 07:46:20;;;;;;;20.77;3.83;;;;;;;10.80;58.59;102337.00;4866755;28;124776;-72
2021/03/16 07:49:06;;;;;;;23.05;3.55;;;;;;;10.89;58.68;102334.16;4860672;28;115122;-72
2021/03/16 07:51:52;;;;;;;21.95;3.47;;;;;;;10.99;58.58;102341.00;4858871;28;114892;-73
2021/03/16 07:54:39;;;;;;;16.97;3.57;;;;;;;11.10;58.22;102343.41;4870143;28;125859;-72
2021/03/16 07:57:30;;;;;;;24.40;4.38;;;;;;;11.15;58.29;102340.63;4873202;28;124699;-72
2021/03/16 08:00:16;;;;;;;16.10;3.70;;;;;;;11.16;57.88;102331.78;4869509;28;115052;-71
2021/03/16 08:03:03;;;;;;;20.35;3.55;;;;;;;11.17;58.06;102349.41;4866047;28;114663;-73
2021/03/16 08:05:49;;;;;;;19.95;3.50;;;;;;;11.17;57.70;102344.13;4859992;28;125239;-72
2021/03/16 08:08:42;;;;;;;15.70;3.17;;;;;;;11.16;57.53;102339.75;4869973;28;123956;-72
2021/03/16 08:11:45;;;;;;;23.50;3.33;;;;;;;11.15;57.60;102335.31;4866860;28;114889;-72
2021/03/16 08:14:30;;;;;;;16.10;2.80;;;;;;;11.17;57.34;102338.81;4868267;28;114735;-72
2021/03/16 08:17:27;;;;;;;16.58;2.97;;;;;;;11.15;57.35;102345.94;4865016;28;125263;-72
2021/03/16 08:20:22;;;;;;;17.02;3.17;;;;;;;11.14;57.36;102346.84;4858439;28;125097;-72
2021/03/16 08:23:14;;;;;;;14.88;2.97;;;;;;;11.15;57.23;102351.22;4857884;28;114761;-72
2021/03/16 08:26:00;;;;;;;15.43;2.50;;;;;;;11.19;57.24;102347.59;4867279;28;114582;-72
2021/03/16 08:28:48;;;;;;;13.27;2.40;;;;;;;11.20;57.05;102350.22;4869940;28;125345;-72
2021/03/16 08:31:43;;;;;;;16.40;3.10;;;;;;;11.21;56.79;102351.13;4857877;28;125047;-73
2021/03/16 08:34:30;;;;;;;14.10;2.67;;;;;;;11.20;56.86;102350.22;4872182;28;115818;-71
2021/03/16 08:37:26;;;;;;;11.98;2.35;;;;;;;11.24;56.97;102361.63;4870522;28;115288;-72
2021/03/16 08:40:24;;;;;;;17.33;3.22;;;;;;;11.25;56.79;102358.09;4860083;28;125024;-72
2021/03/16 08:43:10;;;;;;;15.40;3.20;;;;;;;11.29;56.54;102359.75;4856496;28;125302;-72
2021/03/16 08:45:56;;;;;;;17.73;3.67;;;;;;;11.30;56.36;102366.78;4863584;28;114597;-72
2021/03/16 08:48:45;;;;;;;16.17;3.88;;;;;;;11.27;56.55;102366.88;4868076;28;114892;-73
2021/03/16 08:51:33;;;;;;;16.75;4.18;;;;;;;11.25;56.83;102363.38;4874252;28;124708;-72
2021/03/16 08:54:24;;;;;;;15.15;3.80;;;;;;;11.26;56.82;102365.13;4870268;28;124877;-72
2021/03/16 08:57:09;;;;;;;18.27;3.88;;;;;;;11.27;56.68;102362.44;4869280;28;115321;-72
2021/03/16 08:59:57;;;;;;;18.47;4.20;;;;;;;11.28;56.66;102358.00;4876359;28;114723;-72
2021/03/16 09:02:42;;;;;;;18.42;3.97;;;;;;;11.30;56.80;102366.78;4874178;28;125184;-72
2021/03/16 09:05:28;;;;;;;16.88;3.60;;;;;;;11.33;56.54;102369.38;4868501;28;125752;-71
2021/03/16 09:08:13;;;;;;;15.20;3.13;;;;;;;11.37;56.45;102363.09;4873836;28;114754;-72
2021/03/16 09:10:58;;;;;;;14.67;3.47;;;;;;;11.41;56.56;102359.44;4884090;28;116682;-72
2021/03/16 09:13:43;;;;;;;17.58;3.88;;;;;;;11.42;56.60;102366.50;4887405;28;126437;-72
2021/03/16 09:16:28;;;;;;;19.93;4.00;;;;;;;11.44;56.62;102375.31;4882642;28;124146;-72
2021/03/16 09:19:17;;;;;;;16.70;3.20;;;;;;;11.45;56.46;102371.75;4860784;28;115497;-72
2021/03/16 09:22:05;;;;;;;15.75;3.70;;;;;;;11.50;56.76;102369.84;4861567;28;114913;-72
2021/03/16 09:24:51;;;;;;;11.48;3.40;;;;;;;11.53;56.14;102374.22;4863237;28;124256;-72
2021/03/16 09:27:39;;;;;;;23.20;3.65;;;;;;;11.55;56.29;102371.53;4859502;28;124864;-72
2021/03/16 09:30:24;;;;;;;15.93;2.83;;;;;;;11.56;55.92;102367.94;4865986;28;116362;-72
2021/03/16 09:33:12;;;;;;;8.65;2.30;;;;;;;11.56;55.62;102373.25;4873531;28;115969;-73
2021/03/16 09:36:02;;;;;;;5.72;1.50;;;;;;;11.50;55.54;102366.31;4863137;28;124924;-73
2021/03/16 09:38:54;;;;;;;8.68;1.80;;;;;;;11.44;55.40;102364.69;4874098;28;122989;-71
2021/03/16 09:41:29;;;;;;;9.95;1.70;;;;;;;11.42;55.76;102371.81;4871180;28;113380;-72
2021/03/16 09:43:56;;;;;;;11.57;2.00;;;;;;;11.42;55.90;102371.81;4854413;28;114434;-72
2021/03/16 09:46:22;;;;;;;7.90;1.92;;;;;;;11.45;55.61;102371.75;4867894;28;124408;-72
2021/03/16 09:48:52;;;;;;;7.05;2.03;;;;;;;11.47;55.73;102364.63;4869392;28;124297;-72
2021/03/16 09:51:22;;;;;;;6.97;1.63;;;;;;;11.50;56.04;102359.22;4874773;28;113865;-71
2021/03/16 09:53:50;;;;;;;8.20;1.65;;;;;;;11.53;55.87;102368.00;4874677;28;113813;-72
2021/03/16 09:56:18;;;;;;;7.95;1.90;;;;;;;11.56;55.85;102367.94;4873821;28;124434;-72
2021/03/16 09:58:49;;;;;;;9.27;1.88;;;;;;;11.58;55.77;102366.13;4875632;28;123993;-72
2021/03/16 10:01:20;;;;;;;9.00;1.70;;;;;;;11.61;56.14;102366.94;4873732;28;114976;-72
2021/03/16 10:03:58;;;;;;;9.43;1.85;;;;;;;11.67;55.84;102376.50;4860508;28;114402;-70
2021/03/16 10:06:38;;;;;;;7.53;1.85;;;;;;;11.72;55.77;102371.97;4863731;28;125828;-71
2021/03/16 10:09:18;;;;;;;9.57;2.05;;;;;;;11.75;55.84;102374.53;4861252;28;122813;-71
2021/03/16 10:11:45;;;;;;;5.82;2.10;;;;;;;11.81;55.87;102373.50;4861794;28;114459;-70
2021/03/16 10:14:11;;;;;;;14.23;2.40;;;;;;;11.87;55.99;102363.63;4860450;28;113375;-71
2021/03/16 10:16:39;;;;;;;13.55;2.90;;;;;;;11.94;55.90;102358.16;4877847;28;124297;-71
2021/03/16 10:19:06;;;;;;;8.93;2.85;;;;;;;12.01;56.11;102359.75;4858412;28;124654;-71
2021/03/16 10:21:35;;;;;;;10.15;3.20;;;;;;;12.07;55.69;102351.59;4860868;28;115468;-71
2021/03/16 10:24:07;;;;;;;15.73;3.50;;;;;;;12.14;55.73;102355.84;4871154;28;115566;-71
2021/03/16 10:26:34;;;;;;;12.90;3.15;;;;;;;12.22;55.66;102356.53;4855388;28;123390;-70
2021/03/16 10:29:12;;;;;;;11.90;3.67;;;;;;;12.30;55.49;102355.41;4854791;28;123098;-71
2021/03/16 10:31:39;;;;;;;15.48;3.55;;;;;;;12.38;55.47;102353.44;4852639;28;114535;-71
2021/03/16 10:34:06;;;;;;;12.20;3.42;;;;;;;12.46;55.64;102351.44;4862972;28;113401;-71
2021/03/16 10:36:35;;;;;;;17.10;3.22;;;;;;;12.54;55.29;102352.06;4841055;28;122552;-72
2021/03/16 10:39:04;;;;;;;13.15;3.47;;;;;;;12.62;55.12;102351.84;4857640;28;123951;-71
2021/03/16 10:41:31;;;;;;;14.25;3.63;;;;;;;12.65;54.84;102347.31;4861342;28;114130;-71
2021/03/16 10:43:57;;;;;;;14.05;3.25;;;;;;;12.68;54.74;102340.16;4872322;28;113240;-72
2021/03/16 10:46:24;;;;;;;13.65;3.40;;;;;;;12.65;54.53;102352.63;4856869;28;124192;-73
2021/03/16 10:48:51;;;;;;;15.57;3.08;;;;;;;12.62;54.12;102352.72;4873040;28;123057;-72
2021/03/16 10:51:17;;;;;;;14.73;3.08;;;;;;;12.59;54.63;102355.47;4872247;28;114167;-72
2021/03/16 10:53:44;;;;;;;12.45;2.95;;;;;;;12.60;54.57;102354.56;4862508;28;114107;-72
2021/03/16 10:56:11;;;;;;;11.98;2.97;;;;;;;12.63;54.49;102351.78;4861845;28;124082;-72
2021/03/16 10:58:37;;;;;;;7.38;2.50;;;;;;;12.63;54.27;102351.78;4873823;28;122740;-72
2021/03/16 11:01:04;;;;;;;10.15;2.42;;;;;;;12.62;53.88;102351.84;4874570;28;114946;-72
2021/03/16 11:03:33;;;;;;;9.65;1.92;;;;;;;12.62;53.74;102347.41;4864657;28;113272;-72
2021/03/16 11:06:00;;;;;;;7.40;1.50;;;;;;;12.66;53.67;102343.75;4868485;28;124526;-70
2021/03/16 11:08:28;;;;;;;3.45;1.15;;;;;;;12.68;53.16;102351.69;4856687;28;123941;-70
2021/03/16 11:10:55;;;;;;;4.03;1.10;;;;;;;12.69;52.85;102357.84;4856078;28;115440;-71
2021/03/16 11:13:21;;;;;;;6.32;1.38;;;;;;;12.66;52.61;102354.38;4872450;28;114616;-70
2021/03/16 11:15:48;;;;;;;5.07;1.52;;;;;;;12.63;52.57;102343.81;4872370;28;124418;-70
2021/03/16 11:18:17;;;;;;;3.97;1.30;;;;;;;12.61;52.42;102350.97;4858121;28;124379;-71
2021/03/16 11:20:44;;;;;;;7.68;1.35;;;;;;;12.61;52.25;102353.63;4854181;28;114280;-71
2021/03/16 11:23:11;;;;;;;6.70;1.80;;;;;;;12.59;51.85;102355.47;4866281;28;113981;-71
2021/03/16 11:25:38;;;;;;;4.15;1.08;;;;;;;12.57;52.19;102364.41;4867779;28;125118;-72
2021/03/16 11:28:05;;;;;;;7.05;1.50;;;;;;;12.54;51.83;102360.03;4865441;28;124832;-73
2021/03/16 11:30:32;;;;;;;5.25;1.27;;;;;;;12.52;51.50;102361.88;4855857;28;112766;-74
2021/03/16 11:32:58;;;;;;;5.68;1.27;;;;;;;12.50;51.85;102358.38;4874192;28;112765;-73
2021/03/16 11:35:44;;;;;;;5.38;1.30;;;;;;;12.50;52.01;102363.69;4873166;28;125440;-74
2021/03/16 11:38:29;;;;;;;7.65;1.75;;;;;;;12.52;52.18;102353.91;4872607;28;125111;-73
2021/03/16 11:41:14;;;;;;;6.38;1.77;;;;;;;12.55;52.22;102351.16;4873685;28;115068;-74
2021/03/16 11:43:59;;;;;;;9.50;1.67;;;;;;;12.54;52.18;102354.72;4874548;28;114659;-74
2021/03/16 11:46:44;;;;;;;6.97;1.80;;;;;;;12.51;52.31;102354.84;4859464;28;125379;-74
2021/03/16 11:49:29;;;;;;;9.30;2.17;;;;;;;12.48;52.54;102354.91;4860851;28;124743;-74
2021/03/16 11:52:14;;;;;;;9.73;2.10;;;;;;;12.51;52.81;102343.31;4861181;28;114108;-73
2021/03/16 11:54:59;;;;;;;7.75;2.10;;;;;;;12.53;52.88;102345.03;4873903;28;114566;-74
2021/03/16 11:57:44;;;;;;;9.37;2.30;;;;;;;12.58;52.76;102345.78;4866686;28;125289;-74
2021/03/16 12:00:29;;;;;;;8.67;2.10;;;;;;;12.57;52.85;102349.31;4867266;28;124447;-73
2021/03/16 12:03:14;;;;;;;9.43;2.13;;;;;;;12.58;53.48;102340.44;4864596;28;115745;-73
2021/03/16 12:05:59;;;;;;;8.73;2.20;;;;;;;12.62;53.24;102335.88;4867079;28;114913;-73
2021/03/16 12:08:45;;;;;;;7.63;2.00;;;;;;;12.68;53.33;102340.16;4861781;28;124972;-73
2021/03/16 12:11:30;;;;;;;8.27;2.10;;;;;;;12.72;53.37;102337.38;4867649;28;124852;-73
2021/03/16 12:14:15;;;;;;;11.73;2.10;;;;;;;12.74;53.01;102334.69;4871395;28;114317;-73
2021/03/16 12:17:01;;;;;;;8.50;2.03;;;;;;;12.76;53.01;102351.44;4865566;28;114424;-73
2021/03/16 12:19:46;;;;;;;7.00;2.05;;;;;;;12.78;53.12;102336.31;4862626;28;125768;-72